Date,TemperatureHighF,TemperatureAvgF,TemperatureLowF,DewpointHighF,DewpointAvgF,DewpointLowF,HumidityHigh,HumidityAvg,HumidityLow,PressureMaxIn,PressureMinIn,WindSpeedMaxMPH,WindSpeedAvgMPH,GustSpeedMaxMPH,PrecipitationSumIn
2013-1-1,49.8,45.6,40.8,43.0,34.6,18.1,94,67,35,30.12,29.91,10,2,15,0.03
2013-1-2,40.8,38.2,34.4,39.4,30.5,21.4,96,75,54,30.24,29.98,7,1,8,0.00
2013-1-3,43.1,36.9,33.9,28.3,24.6,19.0,75,61,39,30.29,30.20,6,1,9,0.00
2013-1-4,40.0,34.5,29.2,24.1,22.3,20.3,71,61,49,30.35,30.26,15,2,19,0.00
2013-1-5,47.9,38.6,32.4,34.8,25.1,21.2,85,60,37,30.45,30.24,10,1,11,0.00
2013-1-6,46.9,42.4,36.8,34.5,32.1,29.9,80,67,57,30.26,30.10,8,1,11,0.01
2013-1-7,45.9,37.3,28.0,30.6,26.9,24.4,87,67,47,30.50,30.21,9,1,11,0.00
2013-1-8,53.0,35.2,23.0,35.6,28.7,21.4,96,79,43,30.52,30.41,4,0,5,0.00
2013-1-9,59.8,46.5,31.0,50.1,40.0,28.3,92,79,54,30.48,30.39,11,1,14,0.00
2013-1-10,57.7,49.3,42.1,38.8,35.2,30.8,77,60,37,30.59,30.46,6,0,7,0.00
2013-1-11,45.3,41.8,40.2,40.7,38.7,34.4,98,89,69,30.47,30.17,3,0,5,0.06
2013-1-12,69.7,53.1,41.2,59.8,50.3,40.6,99,91,69,30.21,30.11,5,0,5,0.01
2013-1-13,69.4,59.8,54.5,61.6,56.8,53.7,99,91,74,30.12,29.99,5,0,5,0.01
2013-1-14,63.2,55.4,48.1,59.3,53.8,47.2,98,94,85,30.24,30.03,7,0,8,0.87
2013-1-15,48.1,42.7,38.2,47.5,42.0,37.6,98,98,97,30.30,30.14,5,0,6,2.10
2013-1-16,48.8,42.2,37.9,46.3,41.1,37.3,99,96,87,30.15,29.97,7,0,10,0.47
2013-1-17,47.4,39.6,33.0,45.3,38.2,32.4,98,95,88,30.22,30.03,5,0,7,0.81
2013-1-18,38.4,33.3,28.2,32.6,27.6,24.0,94,80,60,30.56,30.22,8,1,10,0.18
2013-1-19,48.2,37.0,27.1,33.4,28.5,24.8,93,73,40,30.52,30.14,14,1,17,0.16
2013-1-20,51.5,45.0,38.6,33.8,29.0,21.1,68,54,36,30.14,30.01,13,2,21,0.14
2013-1-21,49.1,39.8,30.7,26.9,20.3,8.6,66,47,31,30.12,29.90,18,2,18,0.00
2013-1-22,30.5,23.4,19.0,10.8,2.4,-1.5,48,40,32,30.34,30.02,15,2,19,0.00
2013-1-23,32.9,25.5,18.0,20.5,8.8,-1.6,71,49,28,30.40,30.09,10,1,12,0.00
2013-1-24,36.7,26.1,16.4,24.1,10.8,1.9,74,53,33,30.58,30.03,17,2,20,0.00
2013-1-25,18.3,17.4,16.6,11.2,10.2,8.6,77,73,69,30.56,30.47,1,0,2,0.00
2013-1-26,38.7,33.3,26.0,26.7,23.9,19.8,78,68,59,30.49,30.25,12,1,14,0.13
2013-1-27,37.2,28.2,18.3,27.5,22.5,15.9,92,80,65,30.64,30.48,5,0,6,0.03
2013-1-28,55.9,40.9,31.8,48.0,36.9,26.7,96,86,69,30.52,30.21,10,0,12,0.04
2013-1-29,71.0,60.1,52.7,54.6,50.3,47.8,91,71,53,30.21,29.99,14,1,14,0.00
2013-1-30,70.9,62.0,50.9,62.5,57.2,47.3,98,85,73,29.99,29.33,19,2,19,2.47
2013-1-31,51.1,38.1,33.8,47.5,26.1,18.9,88,62,47,29.96,29.38,20,3,23,0.01